createdAt,value
2019-04-27T00:00:15.237Z,24.37
2019-04-27T00:03:02.015Z,27.25
2019-04-27T00:05:48.199Z,26.33
2019-04-27T00:08:38.807Z,28.12
2019-04-27T00:11:14.381Z,32.80
2019-04-27T00:13:43.945Z,28.40
2019-04-27T00:16:24.678Z,27.27
2019-04-27T00:19:13.253Z,31.97
2019-04-27T00:21:52.933Z,24.80
2019-04-27T00:24:23.558Z,25.53
2019-04-27T00:26:54.036Z,28.67
2019-04-27T00:29:23.663Z,27.30
2019-04-27T00:31:55.774Z,24.57
2019-04-27T00:34:24.705Z,25.00
2019-04-27T00:37:21.279Z,21.13
2019-04-27T00:39:57.277Z,24.57
2019-04-27T00:42:26.297Z,22.23
2019-04-27T00:44:55.445Z,21.27
2019-04-27T00:47:24.582Z,19.90
2019-04-27T00:49:54.986Z,19.87
2019-04-27T00:52:24.096Z,18.73
2019-04-27T00:54:53.894Z,18.97
2019-04-27T00:58:00.200Z,20.37
2019-04-27T01:00:44.030Z,19.25
2019-04-27T01:03:22.894Z,22.47
2019-04-27T01:05:53.124Z,24.80
2019-04-27T01:08:22.946Z,23.20
2019-04-27T01:10:53.664Z,23.30
2019-04-27T01:13:23.046Z,22.70
2019-04-27T01:15:51.985Z,25.40
2019-04-27T01:18:20.742Z,23.33
2019-04-27T01:20:50.934Z,25.20
2019-04-27T01:23:19.782Z,26.27
2019-04-27T01:26:02.330Z,25.67
2019-04-27T01:28:35.678Z,27.30
2019-04-27T01:31:06.965Z,23.20
2019-04-27T01:33:36.326Z,23.40
2019-04-27T01:36:05.434Z,27.80
2019-04-27T01:38:34.440Z,24.67
2019-04-27T01:41:03.454Z,27.50
2019-04-27T01:43:32.514Z,22.97
2019-04-27T01:46:02.399Z,21.75
2019-04-27T01:48:31.484Z,24.70
2019-04-27T01:51:01.223Z,23.17
2019-04-27T01:53:30.568Z,23.20
2019-04-27T01:55:59.715Z,20.07
2019-04-27T01:58:29.328Z,21.07
2019-04-27T02:01:24.733Z,18.70
2019-04-27T02:04:31.173Z,19.87
2019-04-27T02:07:01.298Z,20.90
2019-04-27T02:09:30.139Z,18.53
2019-04-27T02:11:59.436Z,19.50
2019-04-27T02:14:28.800Z,19.57
2019-04-27T02:16:59.371Z,19.10
2019-04-27T02:19:29.305Z,19.57
2019-04-27T02:21:59.762Z,23.43
2019-04-27T02:24:29.007Z,23.42
2019-04-27T02:26:58.729Z,18.40
2019-04-27T02:29:39.346Z,19.00
2019-04-27T02:32:26.622Z,20.80
2019-04-27T02:35:02.014Z,17.10
2019-04-27T02:37:31.059Z,16.70
2019-04-27T02:40:00.404Z,14.35
2019-04-27T02:42:35.092Z,17.87
2019-04-27T02:45:04.575Z,16.50
2019-04-27T02:47:33.867Z,18.00
2019-04-27T02:50:02.699Z,20.43
2019-04-27T02:52:36.329Z,21.00
2019-04-27T02:55:06.295Z,16.57
2019-04-27T02:57:35.335Z,21.30
2019-04-27T03:00:05.047Z,19.40
2019-04-27T03:02:40.243Z,18.00
2019-04-27T03:05:12.691Z,19.40
2019-04-27T03:07:42.700Z,16.57
2019-04-27T03:10:10.579Z,18.60
2019-04-27T03:12:45.204Z,17.07
2019-04-27T03:15:24.848Z,19.70
2019-04-27T03:18:19.270Z,20.00
2019-04-27T03:20:51.566Z,14.70
2019-04-27T03:23:20.420Z,16.67
2019-04-27T03:25:55.140Z,17.50
2019-04-27T03:28:23.975Z,16.90
2019-04-27T03:30:52.953Z,13.63
2019-04-27T03:33:22.812Z,13.40
2019-04-27T03:35:52.999Z,15.55
2019-04-27T03:38:22.675Z,12.50
2019-04-27T03:40:52.990Z,14.83
2019-04-27T03:43:24.763Z,13.37
2019-04-27T03:45:54.092Z,12.80
2019-04-27T03:48:23.401Z,11.80
2019-04-27T03:51:10.469Z,13.37
2019-04-27T03:53:50.480Z,13.17
2019-04-27T03:56:39.558Z,11.47
2019-04-27T03:59:11.499Z,12.50
2019-04-27T04:01:40.666Z,13.30
2019-04-27T04:04:10.579Z,12.25
2019-04-27T04:06:40.210Z,13.10
2019-04-27T04:09:10.440Z,12.95
2019-04-27T04:11:59.191Z,11.67
2019-04-27T04:14:30.229Z,14.23
2019-04-27T04:17:02.968Z,15.37
2019-04-27T04:19:47.812Z,10.60
2019-04-27T04:22:02.910Z,10.43
2019-04-27T04:24:32.002Z,14.47
2019-04-27T04:27:01.082Z,11.80
2019-04-27T04:29:30.814Z,12.10
2019-04-27T04:32:00.453Z,13.43
2019-04-27T04:34:30.178Z,12.13
2019-04-27T04:37:00.537Z,14.50
2019-04-27T04:39:30.658Z,9.58
2019-04-27T04:42:26.529Z,13.73
2019-04-27T04:45:17.237Z,11.27
2019-04-27T04:47:59.619Z,13.20
2019-04-27T04:50:30.376Z,10.37
2019-04-27T04:53:00.058Z,13.80
2019-04-27T04:55:30.593Z,10.90
2019-04-27T04:58:00.161Z,9.77
2019-04-27T05:00:29.927Z,12.03
2019-04-27T05:02:59.628Z,9.87
2019-04-27T05:05:29.289Z,14.60
2019-04-27T05:08:00.606Z,9.60
2019-04-27T05:10:31.235Z,8.77
2019-04-27T05:13:00.289Z,9.47
2019-04-27T05:15:29.555Z,9.83
2019-04-27T05:17:59.091Z,10.00
2019-04-27T05:20:48.665Z,11.97
2019-04-27T05:23:18.670Z,10.33
2019-04-27T05:25:49.078Z,8.13
2019-04-27T05:28:18.803Z,12.87
2019-04-27T05:30:48.927Z,7.60
2019-04-27T05:33:18.727Z,6.80
2019-04-27T05:35:49.104Z,5.53
2019-04-27T05:38:19.299Z,6.00
2019-04-27T05:40:49.886Z,4.83
2019-04-27T05:43:20.486Z,6.03
2019-04-27T05:46:22.640Z,5.25
2019-04-27T05:48:51.486Z,5.50
2019-04-27T05:51:20.338Z,3.20
2019-04-27T05:53:49.594Z,4.00
2019-04-27T05:56:19.323Z,4.00
2019-04-27T05:58:51.267Z,2.80
2019-04-27T06:01:19.964Z,3.00
2019-04-27T06:03:49.814Z,2.70
2019-04-27T06:06:19.740Z,2.50
2019-04-27T06:08:49.487Z,2.43
2019-04-27T06:11:19.643Z,2.80
2019-04-27T06:13:49.326Z,2.30
2019-04-27T06:16:19.482Z,3.47
2019-04-27T06:18:49.311Z,3.60
2019-04-27T06:21:19.602Z,4.87
2019-04-27T06:23:48.826Z,2.63
2019-04-27T06:26:20.060Z,6.87
2019-04-27T06:28:50.381Z,3.07
2019-04-27T06:31:19.633Z,2.40
2019-04-27T06:33:49.706Z,1.73
2019-04-27T06:36:19.914Z,2.07
2019-04-27T06:38:49.070Z,2.67
2019-04-27T06:41:20.254Z,6.63
2019-04-27T06:43:49.511Z,2.03
2019-04-27T06:46:19.936Z,1.83
2019-04-27T06:48:49.580Z,1.70
2019-04-27T06:51:19.624Z,3.83
2019-04-27T06:53:49.426Z,2.67
2019-04-27T06:56:18.578Z,2.40
2019-04-27T06:58:49.111Z,2.17
2019-04-27T07:01:19.053Z,2.00
2019-04-27T07:03:48.651Z,2.90
2019-04-27T07:06:18.719Z,1.90
2019-04-27T07:08:49.697Z,2.80
2019-04-27T07:11:19.753Z,2.97
2019-04-27T07:13:49.791Z,2.37
2019-04-27T07:16:19.635Z,4.93
2019-04-27T07:18:50.425Z,2.47
2019-04-27T07:21:24.582Z,2.63
2019-04-27T07:23:59.447Z,2.20
2019-04-27T07:26:30.244Z,2.93
2019-04-27T07:28:59.706Z,2.83
2019-04-27T07:31:31.424Z,3.70
2019-04-27T07:33:59.662Z,3.55
2019-04-27T07:36:29.415Z,3.00
2019-04-27T07:38:59.843Z,4.17
2019-04-27T07:41:29.107Z,3.30
2019-04-27T07:44:10.217Z,4.63
2019-04-27T07:47:06.887Z,3.23
2019-04-27T07:49:36.230Z,2.77
2019-04-27T07:52:05.151Z,2.80
2019-04-27T07:54:33.946Z,2.85
2019-04-27T07:57:02.682Z,6.33
2019-04-27T07:59:31.710Z,2.73
2019-04-27T08:02:00.723Z,2.13
2019-04-27T08:04:29.468Z,4.37
2019-04-27T08:06:59.614Z,2.63
2019-04-27T08:09:29.122Z,7.40
2019-04-27T08:11:58.682Z,3.00
2019-04-27T08:14:28.606Z,2.80
2019-04-27T08:16:58.679Z,2.15
2019-04-27T08:19:29.404Z,2.20
2019-04-27T08:21:59.539Z,2.52
2019-04-27T08:24:29.479Z,2.77
2019-04-27T08:27:04.623Z,2.35
2019-04-27T08:29:44.744Z,95.73
2019-04-27T08:32:16.481Z,5.40
2019-04-27T08:34:45.355Z,15.30
2019-04-27T08:37:14.425Z,3.80
2019-04-27T08:39:43.431Z,8.97
2019-04-27T08:42:12.714Z,4.73
2019-04-27T08:44:41.481Z,2.30
2019-04-27T08:47:10.482Z,2.97
2019-04-27T08:49:39.760Z,3.03
2019-04-27T08:52:11.106Z,3.23
2019-04-27T08:54:40.141Z,2.50
2019-04-27T08:57:09.665Z,2.73
2019-04-27T08:59:39.402Z,2.57
2019-04-27T09:02:08.883Z,3.00
2019-04-27T09:04:39.425Z,2.90
2019-04-27T09:07:26.758Z,2.80
2019-04-27T09:09:59.802Z,3.37
2019-04-27T09:12:46.224Z,2.20
2019-04-27T09:15:19.602Z,3.33
2019-04-27T09:17:51.476Z,2.43
2019-04-27T09:20:30.277Z,3.15
2019-04-27T09:22:59.296Z,2.93
2019-04-27T09:25:29.584Z,3.40
2019-04-27T09:27:59.757Z,4.50
2019-04-27T09:30:29.775Z,3.87
2019-04-27T09:32:58.751Z,3.00
2019-04-27T09:35:27.799Z,4.87
2019-04-27T09:37:58.602Z,3.97
2019-04-27T09:40:27.688Z,4.10
2019-04-27T09:42:57.239Z,3.97
2019-04-27T09:45:27.081Z,5.43
2019-04-27T09:47:56.373Z,5.05
2019-04-27T09:50:28.000Z,3.70
2019-04-27T09:52:56.272Z,3.80
2019-04-27T09:55:26.356Z,4.23
2019-04-27T09:57:56.927Z,8.03
2019-04-27T10:00:27.863Z,4.87
2019-04-27T10:02:56.931Z,4.47
2019-04-27T10:05:26.489Z,3.97
2019-04-27T10:07:56.910Z,4.47
2019-04-27T10:10:26.794Z,4.30
2019-04-27T10:12:56.781Z,4.60
2019-04-27T10:15:26.666Z,3.93
2019-04-27T10:17:57.689Z,6.73
2019-04-27T10:20:26.915Z,5.20
2019-04-27T10:22:56.401Z,4.00
2019-04-27T10:25:26.935Z,4.92
2019-04-27T10:27:58.941Z,7.23
2019-04-27T10:38:22.320Z,4.47
2019-04-27T10:40:48.986Z,5.60
2019-04-27T10:43:17.983Z,4.37
2019-04-27T10:45:58.394Z,4.73
2019-04-27T10:48:27.221Z,4.47
2019-04-27T10:50:56.001Z,4.43
2019-04-27T10:53:26.761Z,7.60
2019-04-27T10:55:56.531Z,5.13
2019-04-27T10:58:28.264Z,5.83
2019-04-27T11:01:08.090Z,5.27
2019-04-27T11:03:58.355Z,6.28
2019-04-27T11:06:35.361Z,6.30
2019-04-27T11:09:07.518Z,9.23
2019-04-27T11:11:36.525Z,5.90
2019-04-27T11:14:06.868Z,5.30
2019-04-27T11:16:37.816Z,6.37
2019-04-27T11:19:06.929Z,5.50
2019-04-27T11:22:17.004Z,6.37
2019-04-27T11:24:47.857Z,3.03
2019-04-27T11:27:16.503Z,5.33
2019-04-27T11:29:46.157Z,2.52
2019-04-27T11:32:16.335Z,2.83
2019-04-27T11:35:25.657Z,2.53
2019-04-27T11:37:55.684Z,2.80
2019-04-27T11:40:25.368Z,3.03
2019-04-27T11:42:57.066Z,1.95
2019-04-27T11:45:26.743Z,3.50
2019-04-27T11:47:57.118Z,2.67
2019-04-27T11:50:26.386Z,2.40
2019-04-27T11:52:56.782Z,2.23
2019-04-27T11:55:27.369Z,2.73
2019-04-27T11:57:56.664Z,2.57
2019-04-27T12:00:27.678Z,1.87
2019-04-27T12:02:57.179Z,2.53
2019-04-27T12:05:26.462Z,2.43
2019-04-27T12:07:56.118Z,1.93
2019-04-27T12:10:26.295Z,4.07
2019-04-27T12:12:56.424Z,1.90
2019-04-27T12:15:26.237Z,3.83
2019-04-27T12:17:56.186Z,4.90
2019-04-27T12:20:27.592Z,4.23
2019-04-27T12:22:57.155Z,2.87
2019-04-27T12:25:26.789Z,1.90
2019-04-27T12:28:20.809Z,1.83
2019-04-27T12:30:56.395Z,1.53
2019-04-27T12:33:27.575Z,2.00
2019-04-27T12:35:56.900Z,2.10
2019-04-27T12:38:26.411Z,2.23
2019-04-27T12:40:59.193Z,3.40
2019-04-27T12:43:28.469Z,2.70
2019-04-27T12:45:57.521Z,1.67
2019-04-27T12:48:26.551Z,8.23
2019-04-27T12:50:56.326Z,2.20
2019-04-27T12:53:31.100Z,3.10
2019-04-27T12:56:08.606Z,5.13
2019-04-27T12:58:50.746Z,3.30
2019-04-27T13:01:20.751Z,3.10
2019-04-27T13:03:49.747Z,6.23
2019-04-27T13:06:19.262Z,2.20
2019-04-27T13:08:48.928Z,1.77
2019-04-27T13:11:17.674Z,2.50
2019-04-27T13:13:46.807Z,2.00
2019-04-27T13:16:16.628Z,3.87
2019-04-27T13:18:46.094Z,3.55
2019-04-27T13:21:16.012Z,10.13
2019-04-27T13:23:45.831Z,6.67
2019-04-27T13:26:16.375Z,11.93
2019-04-27T13:28:46.729Z,8.63
2019-04-27T13:31:15.754Z,9.80
2019-04-27T13:33:46.450Z,9.93
2019-04-27T13:36:16.699Z,9.23
2019-04-27T13:38:46.680Z,12.80
2019-04-27T13:41:26.255Z,15.60
2019-04-27T13:43:46.269Z,9.67
2019-04-27T13:46:33.305Z,13.93
2019-04-27T13:49:21.756Z,7.97
2019-04-27T13:51:58.325Z,9.60
2019-04-27T13:54:29.210Z,11.57
2019-04-27T13:56:58.151Z,11.87
2019-04-27T13:59:27.102Z,11.75
2019-04-27T14:01:55.911Z,14.00
2019-04-27T14:04:25.570Z,14.23
2019-04-27T14:06:54.678Z,13.20
2019-04-27T14:09:24.169Z,11.43
2019-04-27T14:11:56.783Z,11.20
2019-04-27T14:14:25.699Z,13.27
2019-04-27T14:16:54.811Z,14.23
2019-04-27T14:19:23.666Z,14.60
2019-04-27T14:21:52.427Z,7.10
2019-04-27T14:24:30.087Z,7.03
2019-04-27T14:26:53.787Z,15.67
2019-04-27T14:29:22.583Z,15.83
2019-04-27T14:31:51.386Z,9.53
2019-04-27T14:34:20.249Z,7.93
2019-04-27T14:36:49.519Z,6.17
2019-04-27T14:39:18.978Z,13.47
2019-04-27T14:41:49.131Z,7.53
2019-04-27T14:44:18.791Z,9.00
2019-04-27T14:46:48.643Z,18.43
2019-04-27T14:49:18.258Z,7.67
2019-04-27T14:51:48.743Z,12.23
2019-04-27T14:54:17.804Z,5.23
2019-04-27T14:56:48.770Z,9.97
2019-04-27T14:59:18.768Z,9.97
2019-04-27T15:01:48.776Z,6.07
2019-04-27T15:04:17.575Z,10.30
2019-04-27T15:06:46.904Z,20.10
2019-04-27T15:09:18.005Z,20.00
2019-04-27T15:11:49.237Z,7.17
2019-04-27T15:14:20.714Z,6.17
2019-04-27T15:16:49.644Z,8.25
2019-04-27T15:19:24.387Z,5.53
2019-04-27T15:21:58.525Z,5.78
2019-04-27T15:24:24.311Z,7.90
2019-04-27T15:27:00.789Z,5.80
2019-04-27T15:29:29.252Z,7.07
2019-04-27T15:32:04.111Z,4.70
2019-04-27T15:34:43.133Z,12.77
2019-04-27T15:37:38.881Z,9.97
2019-04-27T15:40:29.172Z,7.77
2019-04-27T15:43:06.527Z,7.22
2019-04-27T15:45:38.942Z,4.97
2019-04-27T15:48:08.474Z,6.83
2019-04-27T15:50:39.302Z,4.30
2019-04-27T15:53:12.625Z,6.00
2019-04-27T15:55:43.343Z,4.17
2019-04-27T15:58:14.160Z,5.43
2019-04-27T16:00:43.719Z,3.13
2019-04-27T16:03:14.820Z,5.10
2019-04-27T16:05:44.237Z,3.20
2019-04-27T16:08:15.676Z,5.30
2019-04-27T16:10:44.870Z,4.60
2019-04-27T16:13:18.632Z,2.33
2019-04-27T16:15:53.856Z,3.27
2019-04-27T16:18:18.704Z,3.73
2019-04-27T16:20:48.580Z,2.47
2019-04-27T16:23:18.163Z,2.33
2019-04-27T16:25:49.384Z,3.20
2019-04-27T16:28:19.407Z,2.77
2019-04-27T16:30:52.365Z,2.80
2019-04-27T16:33:21.998Z,2.47
2019-04-27T16:35:53.105Z,2.40
2019-04-27T16:38:34.660Z,2.45
2019-04-27T16:41:03.497Z,2.00
2019-04-27T16:43:33.040Z,3.80
2019-04-27T16:46:04.233Z,2.20
2019-04-27T16:48:34.794Z,3.40
2019-04-27T16:51:04.143Z,1.63
2019-04-27T16:53:39.714Z,2.63
2019-04-27T16:56:14.227Z,1.03
2019-04-27T16:58:39.571Z,1.53
2019-04-27T17:01:18.401Z,1.90
2019-04-27T17:03:48.515Z,1.73
2019-04-27T17:06:21.056Z,1.30
2019-04-27T17:08:49.645Z,2.70
2019-04-27T17:11:19.799Z,1.47
2019-04-27T17:13:54.043Z,4.17
2019-04-27T17:16:55.663Z,2.70
2019-04-27T17:19:30.588Z,2.00
2019-04-27T17:21:59.551Z,4.17
2019-04-27T17:24:41.599Z,2.63
2019-04-27T17:27:11.135Z,2.30
2019-04-27T17:29:40.303Z,2.90
2019-04-27T17:32:19.858Z,2.57
2019-04-27T17:34:48.922Z,4.50
2019-04-27T17:37:18.067Z,4.73
2019-04-27T17:39:48.836Z,1.80
2019-04-27T17:42:18.711Z,4.03
2019-04-27T17:44:49.012Z,2.35
2019-04-27T17:47:20.052Z,1.57
2019-04-27T17:49:48.892Z,3.53
2019-04-27T17:52:18.287Z,4.43
2019-04-27T17:54:48.519Z,1.37
2019-04-27T17:57:17.905Z,7.08
2019-04-27T17:59:51.247Z,2.50
2019-04-27T18:02:18.122Z,2.30
2019-04-27T18:04:48.390Z,2.20
2019-04-27T18:07:19.043Z,6.30
2019-04-27T18:09:48.727Z,5.40
2019-04-27T18:12:18.294Z,3.02
2019-04-27T18:14:48.054Z,2.60
2019-04-27T18:17:19.617Z,6.53
2019-04-27T18:19:55.643Z,3.70
2019-04-27T18:22:25.237Z,3.03
2019-04-27T18:25:06.177Z,4.97
2019-04-27T18:27:56.032Z,9.30
2019-04-27T18:30:38.772Z,2.37
2019-04-27T18:33:14.260Z,5.17
2019-04-27T18:35:43.415Z,2.50
2019-04-27T18:38:12.687Z,3.10
2019-04-27T18:40:46.005Z,4.80
2019-04-27T18:43:23.125Z,3.73
2019-04-27T18:45:53.301Z,4.00
2019-04-27T18:48:34.962Z,4.67
2019-04-27T18:51:13.644Z,2.33
2019-04-27T18:53:45.642Z,2.73
2019-04-27T18:56:23.342Z,3.40
2019-04-27T18:59:00.491Z,3.73
2019-04-27T19:01:36.286Z,2.13
2019-04-27T19:04:05.987Z,3.50
2019-04-27T19:06:36.767Z,3.67
2019-04-27T19:09:09.341Z,2.58
2019-04-27T19:11:38.644Z,3.87
2019-04-27T19:14:08.315Z,3.87
2019-04-27T19:16:38.882Z,7.40
2019-04-27T19:19:11.728Z,4.00
2019-04-27T19:21:41.022Z,3.33
2019-04-27T19:24:10.694Z,3.47
2019-04-27T19:27:15.345Z,5.13
2019-04-27T19:29:48.519Z,3.27
2019-04-27T19:32:18.639Z,2.90
2019-04-27T19:34:48.035Z,3.87
2019-04-27T19:37:18.359Z,7.40
2019-04-27T19:39:49.822Z,2.80
2019-04-27T19:42:31.456Z,4.13
2019-04-27T19:45:01.864Z,3.23
2019-04-27T19:47:30.795Z,2.23
2019-04-27T19:50:00.224Z,5.13
2019-04-27T19:52:29.993Z,4.20
2019-04-27T19:55:00.378Z,3.17
2019-04-27T19:57:37.780Z,3.23
2019-04-27T20:00:02.658Z,3.83
2019-04-27T20:02:32.076Z,4.27
2019-04-27T20:05:04.807Z,3.93
2019-04-27T20:07:42.243Z,7.10
2019-04-27T20:10:11.784Z,3.30
2019-04-27T20:12:41.238Z,4.00
2019-04-27T20:15:10.793Z,5.23
2019-04-27T20:17:40.924Z,6.05
2019-04-27T20:20:10.251Z,5.70
2019-04-27T20:22:39.104Z,6.10
2019-04-27T20:25:08.874Z,5.90
2019-04-27T20:27:48.399Z,6.73
2019-04-27T20:30:12.058Z,8.03
2019-04-27T20:32:47.010Z,7.92
2019-04-27T20:35:18.025Z,8.80
2019-04-27T20:37:46.943Z,7.60
2019-04-27T20:40:16.479Z,9.50
2019-04-27T20:42:45.479Z,8.00
2019-04-27T20:45:14.965Z,9.30
2019-04-27T20:47:44.494Z,6.27
2019-04-27T20:50:13.930Z,6.67
2019-04-27T20:52:53.963Z,10.57
2019-04-27T20:55:25.215Z,9.17
2019-04-27T20:58:02.298Z,6.00
2019-04-27T21:00:29.305Z,6.27
2019-04-27T21:03:16.169Z,5.03
2019-04-27T21:05:51.621Z,10.10
2019-04-27T21:08:21.347Z,9.43
2019-04-27T21:10:51.586Z,8.10
2019-04-27T21:13:20.600Z,7.97
2019-04-27T21:15:50.933Z,6.70
2019-04-27T21:18:21.827Z,8.40
2019-04-27T21:20:51.260Z,6.40
2019-04-27T21:23:21.018Z,9.43
2019-04-27T21:25:53.039Z,8.57
2019-04-27T21:28:20.587Z,8.10
2019-04-27T21:30:59.154Z,6.37
2019-04-27T21:33:28.476Z,11.70
2019-04-27T21:35:57.508Z,11.67
2019-04-27T21:38:26.925Z,8.87
2019-04-27T21:40:56.584Z,13.17
2019-04-27T21:43:26.213Z,9.13
2019-04-27T21:45:55.019Z,11.43
2019-04-27T21:48:23.835Z,12.78
2019-04-27T21:50:52.905Z,9.83
2019-04-27T21:53:59.802Z,12.37
2019-04-27T21:56:24.339Z,8.30
2019-04-27T21:58:53.131Z,9.43
2019-04-27T22:01:29.442Z,9.70
2019-04-27T22:04:00.892Z,11.43
2019-04-27T22:06:29.636Z,9.50
2019-04-27T22:09:06.581Z,11.00
2019-04-27T22:11:35.709Z,7.90
2019-04-27T22:14:08.447Z,10.33
2019-04-27T22:16:37.952Z,9.30
2019-04-27T22:19:11.921Z,12.47
2019-04-27T22:21:41.983Z,9.83
2019-04-27T22:24:17.194Z,11.73
2019-04-27T22:26:46.208Z,17.23
2019-04-27T22:29:14.976Z,15.10
2019-04-27T22:31:43.810Z,19.57
2019-04-27T22:34:12.586Z,18.43
2019-04-27T22:36:41.377Z,17.40
2019-04-27T22:39:41.706Z,22.40
2019-04-27T22:42:28.382Z,18.93
2019-04-27T22:45:01.241Z,13.40
2019-04-27T22:47:31.777Z,17.20
2019-04-27T22:50:00.825Z,14.93
2019-04-27T22:52:30.766Z,20.60
2019-04-27T22:55:01.648Z,19.73
2019-04-27T22:57:41.382Z,20.23
2019-04-27T23:00:35.662Z,15.60
2019-04-27T23:03:07.734Z,21.00
2019-04-27T23:05:36.771Z,14.70
2019-04-27T23:08:05.757Z,20.33
2019-04-27T23:10:34.557Z,15.53
2019-04-27T23:13:03.326Z,18.00
2019-04-27T23:15:38.118Z,15.37
2019-04-27T23:18:07.126Z,16.30
2019-04-27T23:20:42.715Z,15.47
2019-04-27T23:23:17.156Z,16.57
2019-04-27T23:26:04.479Z,16.20
2019-04-27T23:28:34.849Z,14.60
2019-04-27T23:31:26.454Z,18.40
2019-04-27T23:34:06.640Z,18.50
2019-04-27T23:36:35.747Z,11.00
2019-04-27T23:39:07.818Z,14.37
2019-04-27T23:41:36.595Z,12.33
2019-04-27T23:44:23.441Z,11.60
2019-04-27T23:46:52.196Z,18.40
2019-04-27T23:49:23.754Z,16.20
2019-04-27T23:52:05.310Z,15.40
2019-04-27T23:54:51.177Z,20.75
2019-04-27T23:57:21.779Z,13.13
2019-04-27T23:59:51.506Z,16.20
